sensor_id;sensor_type;location;lat;lon;timestamp;P1;P2;P0
68698;PMS7003;55680;48.850;2.310;2022-09-27T00:00:33;0.00;0.00;0.00
68698;PMS7003;55680;48.850;2.310;2022-09-27T00:02:58;0.00;0.00;0.00
68698;PMS7003;55680;48.850;2.310;2022-09-27T00:05:24;1.00;0.00;0.00
68698;PMS7003;55680;48.850;2.310;2022-09-27T00:07:49;3.00;0.00;0.00
68698;PMS7003;55680;48.850;2.310;2022-09-27T00:10:14;0.00;0.00;0.00
68698;PMS7003;55680;48.850;2.310;2022-09-27T00:12:40;0.00;0.00;0.00
68698;PMS7003;55680;48.850;2.310;2022-09-27T00:15:07;0.00;0.00;0.00
68698;PMS7003;55680;48.850;2.310;2022-09-27T00:17:33;0.00;0.00;0.00
68698;PMS7003;55680;48.850;2.310;2022-09-27T00:19:59;3.00;1.00;0.00
68698;PMS7003;55680;48.850;2.310;2022-09-27T00:22:25;0.00;0.00;0.00
68698;PMS7003;55680;48.850;2.310;2022-09-27T00:24:50;0.00;0.00;0.00
68698;PMS7003;55680;48.850;2.310;2022-09-27T00:27:16;0.00;0.00;0.00
68698;PMS7003;55680;48.850;2.310;2022-09-27T00:29:41;0.00;0.00;0.00
68698;PMS7003;55680;48.850;2.310;2022-09-27T00:32:07;0.00;0.00;0.00
68698;PMS7003;55680;48.850;2.310;2022-09-27T00:34:32;0.33;0.33;0.00
68698;PMS7003;55680;48.850;2.310;2022-09-27T00:36:57;0.00;0.00;0.00
68698;PMS7003;55680;48.850;2.310;2022-09-27T00:39:22;1.00;0.00;0.00
68698;PMS7003;55680;48.850;2.310;2022-09-27T00:41:48;0.00;0.00;0.00
68698;PMS7003;55680;48.850;2.310;2022-09-27T00:47:02;0.00;0.00;0.00
68698;PMS7003;55680;48.850;2.310;2022-09-27T00:52:00;0.00;0.00;0.00
68698;PMS7003;55680;48.850;2.310;2022-09-27T00:54:26;0.00;0.00;0.00
68698;PMS7003;55680;48.850;2.310;2022-09-27T00:56:53;3.25;0.75;0.25
68698;PMS7003;55680;48.850;2.310;2022-09-27T00:59:19;1.50;1.00;0.00
68698;PMS7003;55680;48.850;2.310;2022-09-27T01:01:48;5.50;2.75;1.00
68698;PMS7003;55680;48.850;2.310;2022-09-27T01:04:15;0.00;0.00;0.00
68698;PMS7003;55680;48.850;2.310;2022-09-27T01:06:42;0.00;0.00;0.00
68698;PMS7003;55680;48.850;2.310;2022-09-27T01:09:07;0.33;0.33;0.00
68698;PMS7003;55680;48.850;2.310;2022-09-27T01:14:07;0.00;0.00;0.00
68698;PMS7003;55680;48.850;2.310;2022-09-27T01:16:38;0.75;0.75;0.00
68698;PMS7003;55680;48.850;2.310;2022-09-27T01:19:12;0.00;0.00;0.00
68698;PMS7003;55680;48.850;2.310;2022-09-27T01:24:13;1.00;0.00;0.00
68698;PMS7003;55680;48.850;2.310;2022-09-27T01:29:26;0.00;0.00;0.00
68698;PMS7003;55680;48.850;2.310;2022-09-27T01:32:06;1.00;0.00;0.00
68698;PMS7003;55680;48.850;2.310;2022-09-27T01:34:34;0.00;0.00;0.00
68698;PMS7003;55680;48.850;2.310;2022-09-27T01:37:51;0.00;0.00;0.00
68698;PMS7003;55680;48.850;2.310;2022-09-27T01:42:25;0.00;0.00;0.00
68698;PMS7003;55680;48.850;2.310;2022-09-27T01:47:40;3.00;0.00;0.00
68698;PMS7003;55680;48.850;2.310;2022-09-27T01:50:10;0.00;0.00;0.00
68698;PMS7003;55680;48.850;2.310;2022-09-27T01:52:40;0.00;0.00;0.00
68698;PMS7003;55680;48.850;2.310;2022-09-27T01:55:08;0.00;0.00;0.00
68698;PMS7003;55680;48.850;2.310;2022-09-27T01:57:39;0.00;0.00;0.00
68698;PMS7003;55680;48.850;2.310;2022-09-27T02:00:08;0.00;0.00;0.00
68698;PMS7003;55680;48.850;2.310;2022-09-27T02:02:38;0.00;0.00;0.00
68698;PMS7003;55680;48.850;2.310;2022-09-27T02:05:06;1.25;0.75;0.00
68698;PMS7003;55680;48.850;2.310;2022-09-27T02:07:54;0.75;0.00;0.00
68698;PMS7003;55680;48.850;2.310;2022-09-27T02:10:24;0.00;0.00;0.00
68698;PMS7003;55680;48.850;2.310;2022-09-27T02:13:14;0.00;0.00;0.00
68698;PMS7003;55680;48.850;2.310;2022-09-27T02:16:27;3.50;1.00;0.00
68698;PMS7003;55680;48.850;2.310;2022-09-27T02:18:28;0.50;0.00;0.00
68698;PMS7003;55680;48.850;2.310;2022-09-27T02:20:57;0.00;0.00;0.00
68698;PMS7003;55680;48.850;2.310;2022-09-27T02:28:23;0.00;0.00;0.00
68698;PMS7003;55680;48.850;2.310;2022-09-27T02:30:49;0.25;0.25;0.00
68698;PMS7003;55680;48.850;2.310;2022-09-27T02:33:15;0.00;0.00;0.00
68698;PMS7003;55680;48.850;2.310;2022-09-27T02:35:41;0.00;0.00;0.00
68698;PMS7003;55680;48.850;2.310;2022-09-27T02:38:07;0.00;0.00;0.00
68698;PMS7003;55680;48.850;2.310;2022-09-27T02:40:33;1.00;0.00;0.00
68698;PMS7003;55680;48.850;2.310;2022-09-27T02:42:59;1.00;0.00;0.00
68698;PMS7003;55680;48.850;2.310;2022-09-27T02:45:25;1.00;0.00;0.00
68698;PMS7003;55680;48.850;2.310;2022-09-27T02:50:34;0.00;0.00;0.00
68698;PMS7003;55680;48.850;2.310;2022-09-27T02:53:09;0.25;0.00;0.00
68698;PMS7003;55680;48.850;2.310;2022-09-27T03:00:58;1.67;0.00;0.00
68698;PMS7003;55680;48.850;2.310;2022-09-27T03:03:27;1.00;1.00;0.00
68698;PMS7003;55680;48.850;2.310;2022-09-27T03:06:05;0.00;0.00;0.00
68698;PMS7003;55680;48.850;2.310;2022-09-27T03:08:31;0.00;0.00;0.00
68698;PMS7003;55680;48.850;2.310;2022-09-27T03:10:56;0.00;0.00;0.00
68698;PMS7003;55680;48.850;2.310;2022-09-27T03:13:22;0.00;0.00;0.00
68698;PMS7003;55680;48.850;2.310;2022-09-27T03:15:47;0.00;0.00;0.00
68698;PMS7003;55680;48.850;2.310;2022-09-27T03:18:12;0.00;0.00;0.00
68698;PMS7003;55680;48.850;2.310;2022-09-27T03:20:37;0.25;0.25;0.00
68698;PMS7003;55680;48.850;2.310;2022-09-27T03:23:03;0.00;0.00;0.00
68698;PMS7003;55680;48.850;2.310;2022-09-27T03:25:28;0.00;0.00;0.00
68698;PMS7003;55680;48.850;2.310;2022-09-27T03:27:53;0.67;0.00;0.00
68698;PMS7003;55680;48.850;2.310;2022-09-27T03:30:18;0.33;0.00;0.00
68698;PMS7003;55680;48.850;2.310;2022-09-27T03:32:44;0.00;0.00;0.00
68698;PMS7003;55680;48.850;2.310;2022-09-27T03:35:10;0.00;0.00;0.00
68698;PMS7003;55680;48.850;2.310;2022-09-27T03:37:35;0.00;0.00;0.00
68698;PMS7003;55680;48.850;2.310;2022-09-27T03:40:01;0.00;0.00;0.00
68698;PMS7003;55680;48.850;2.310;2022-09-27T03:42:26;0.00;0.00;0.00
68698;PMS7003;55680;48.850;2.310;2022-09-27T03:44:51;0.67;0.00;0.00
68698;PMS7003;55680;48.850;2.310;2022-09-27T03:47:16;0.00;0.00;0.00
68698;PMS7003;55680;48.850;2.310;2022-09-27T03:49:41;0.00;0.00;0.00
68698;PMS7003;55680;48.850;2.310;2022-09-27T03:52:07;0.00;0.00;0.00
68698;PMS7003;55680;48.850;2.310;2022-09-27T03:54:32;0.00;0.00;0.00
68698;PMS7003;55680;48.850;2.310;2022-09-27T03:56:57;0.00;0.00;0.00
68698;PMS7003;55680;48.850;2.310;2022-09-27T03:59:23;0.00;0.00;0.00
68698;PMS7003;55680;48.850;2.310;2022-09-27T04:01:48;0.00;0.00;0.00
68698;PMS7003;55680;48.850;2.310;2022-09-27T04:04:13;0.00;0.00;0.00
68698;PMS7003;55680;48.850;2.310;2022-09-27T04:06:38;0.00;0.00;0.00
68698;PMS7003;55680;48.850;2.310;2022-09-27T04:09:04;0.00;0.00;0.00
68698;PMS7003;55680;48.850;2.310;2022-09-27T04:11:29;0.00;0.00;0.00
68698;PMS7003;55680;48.850;2.310;2022-09-27T04:13:54;0.67;0.00;0.00
68698;PMS7003;55680;48.850;2.310;2022-09-27T04:16:20;0.00;0.00;0.00
68698;PMS7003;55680;48.850;2.310;2022-09-27T04:18:45;0.00;0.00;0.00
68698;PMS7003;55680;48.850;2.310;2022-09-27T04:21:10;1.00;1.00;0.00
68698;PMS7003;55680;48.850;2.310;2022-09-27T04:23:36;0.00;0.00;0.00
68698;PMS7003;55680;48.850;2.310;2022-09-27T04:26:01;0.00;0.00;0.00
68698;PMS7003;55680;48.850;2.310;2022-09-27T04:28:26;0.00;0.00;0.00
68698;PMS7003;55680;48.850;2.310;2022-09-27T04:30:54;0.50;0.00;0.00
68698;PMS7003;55680;48.850;2.310;2022-09-27T04:33:19;0.00;0.00;0.00
68698;PMS7003;55680;48.850;2.310;2022-09-27T04:35:44;0.00;0.00;0.00
68698;PMS7003;55680;48.850;2.310;2022-09-27T04:38:28;0.00;0.00;0.00
68698;PMS7003;55680;48.850;2.310;2022-09-27T04:40:53;0.00;0.00;0.00
68698;PMS7003;55680;48.850;2.310;2022-09-27T04:43:18;0.00;0.00;0.00
68698;PMS7003;55680;48.850;2.310;2022-09-27T04:45:44;0.00;0.00;0.00
68698;PMS7003;55680;48.850;2.310;2022-09-27T04:48:09;0.00;0.00;0.00
68698;PMS7003;55680;48.850;2.310;2022-09-27T04:50:34;0.00;0.00;0.00
68698;PMS7003;55680;48.850;2.310;2022-09-27T04:52:59;0.00;0.00;0.00
68698;PMS7003;55680;48.850;2.310;2022-09-27T04:55:25;0.00;0.00;0.00
68698;PMS7003;55680;48.850;2.310;2022-09-27T04:57:51;0.00;0.00;0.00
68698;PMS7003;55680;48.850;2.310;2022-09-27T05:00:17;1.00;0.00;0.00
68698;PMS7003;55680;48.850;2.310;2022-09-27T05:02:42;0.00;0.00;0.00
68698;PMS7003;55680;48.850;2.310;2022-09-27T05:05:08;0.00;0.00;0.00
68698;PMS7003;55680;48.850;2.310;2022-09-27T05:07:33;1.00;0.00;0.00
68698;PMS7003;55680;48.850;2.310;2022-09-27T05:09:59;0.00;0.00;0.00
68698;PMS7003;55680;48.850;2.310;2022-09-27T05:12:25;0.25;0.25;0.00
68698;PMS7003;55680;48.850;2.310;2022-09-27T05:14:51;0.00;0.00;0.00
68698;PMS7003;55680;48.850;2.310;2022-09-27T05:17:16;0.00;0.00;0.00
68698;PMS7003;55680;48.850;2.310;2022-09-27T05:19:42;1.50;0.00;0.00
68698;PMS7003;55680;48.850;2.310;2022-09-27T05:22:07;0.75;0.00;0.00
68698;PMS7003;55680;48.850;2.310;2022-09-27T05:24:33;0.00;0.00;0.00
68698;PMS7003;55680;48.850;2.310;2022-09-27T05:26:59;0.00;0.00;0.00
68698;PMS7003;55680;48.850;2.310;2022-09-27T05:29:24;0.00;0.00;0.00
68698;PMS7003;55680;48.850;2.310;2022-09-27T05:31:49;0.00;0.00;0.00
68698;PMS7003;55680;48.850;2.310;2022-09-27T05:34:14;0.00;0.00;0.00
68698;PMS7003;55680;48.850;2.310;2022-09-27T05:36:40;0.00;0.00;0.00
68698;PMS7003;55680;48.850;2.310;2022-09-27T05:39:05;0.00;0.00;0.00
68698;PMS7003;55680;48.850;2.310;2022-09-27T05:41:31;0.00;0.00;0.00
68698;PMS7003;55680;48.850;2.310;2022-09-27T05:43:56;0.00;0.00;0.00
68698;PMS7003;55680;48.850;2.310;2022-09-27T05:46:21;0.00;0.00;0.00
68698;PMS7003;55680;48.850;2.310;2022-09-27T05:48:47;0.00;0.00;0.00
68698;PMS7003;55680;48.850;2.310;2022-09-27T05:51:12;3.67;0.00;0.00
68698;PMS7003;55680;48.850;2.310;2022-09-27T05:53:38;0.00;0.00;0.00
68698;PMS7003;55680;48.850;2.310;2022-09-27T05:56:03;0.33;0.33;0.00
68698;PMS7003;55680;48.850;2.310;2022-09-27T05:58:29;0.00;0.00;0.00
68698;PMS7003;55680;48.850;2.310;2022-09-27T06:00:54;0.00;0.00;0.00
68698;PMS7003;55680;48.850;2.310;2022-09-27T06:03:19;0.00;0.00;0.00
68698;PMS7003;55680;48.850;2.310;2022-09-27T06:05:44;1.75;0.00;0.00
68698;PMS7003;55680;48.850;2.310;2022-09-27T06:08:10;0.00;0.00;0.00
68698;PMS7003;55680;48.850;2.310;2022-09-27T06:10:36;0.00;0.00;0.00
68698;PMS7003;55680;48.850;2.310;2022-09-27T06:13:11;0.00;0.00;0.00
68698;PMS7003;55680;48.850;2.310;2022-09-27T06:15:37;0.00;0.00;0.00
68698;PMS7003;55680;48.850;2.310;2022-09-27T06:18:07;0.00;0.00;0.00
68698;PMS7003;55680;48.850;2.310;2022-09-27T06:20:33;0.00;0.00;0.00
68698;PMS7003;55680;48.850;2.310;2022-09-27T06:23:03;0.00;0.00;0.00
68698;PMS7003;55680;48.850;2.310;2022-09-27T06:25:29;1.00;0.00;0.00
68698;PMS7003;55680;48.850;2.310;2022-09-27T06:27:54;3.00;0.00;0.00
68698;PMS7003;55680;48.850;2.310;2022-09-27T06:30:19;0.00;0.00;0.00
68698;PMS7003;55680;48.850;2.310;2022-09-27T06:32:44;3.00;0.00;0.00
68698;PMS7003;55680;48.850;2.310;2022-09-27T06:35:09;3.00;0.00;0.00
68698;PMS7003;55680;48.850;2.310;2022-09-27T06:37:35;0.00;0.00;0.00
68698;PMS7003;55680;48.850;2.310;2022-09-27T06:40:00;0.00;0.00;0.00
68698;PMS7003;55680;48.850;2.310;2022-09-27T06:42:26;4.00;2.75;1.00
68698;PMS7003;55680;48.850;2.310;2022-09-27T06:44:51;0.25;0.25;0.00
68698;PMS7003;55680;48.850;2.310;2022-09-27T06:47:18;0.00;0.00;0.00
68698;PMS7003;55680;48.850;2.310;2022-09-27T06:49:43;0.00;0.00;0.00
68698;PMS7003;55680;48.850;2.310;2022-09-27T06:52:08;0.67;0.33;0.00
68698;PMS7003;55680;48.850;2.310;2022-09-27T06:54:34;0.00;0.00;0.00
68698;PMS7003;55680;48.850;2.310;2022-09-27T06:56:59;2.75;1.50;0.00
68698;PMS7003;55680;48.850;2.310;2022-09-27T06:59:24;0.00;0.00;0.00
68698;PMS7003;55680;48.850;2.310;2022-09-27T07:02:08;0.50;0.00;0.00
68698;PMS7003;55680;48.850;2.310;2022-09-27T07:04:34;0.25;0.00;0.00
68698;PMS7003;55680;48.850;2.310;2022-09-27T07:06:59;0.00;0.00;0.00
68698;PMS7003;55680;48.850;2.310;2022-09-27T07:09:24;0.00;0.00;0.00
68698;PMS7003;55680;48.850;2.310;2022-09-27T07:11:50;1.00;0.00;0.00
68698;PMS7003;55680;48.850;2.310;2022-09-27T07:14:15;0.00;0.00;0.00
68698;PMS7003;55680;48.850;2.310;2022-09-27T07:16:41;0.00;0.00;0.00
68698;PMS7003;55680;48.850;2.310;2022-09-27T07:19:07;1.00;0.00;0.00
68698;PMS7003;55680;48.850;2.310;2022-09-27T07:21:35;0.00;0.00;0.00
68698;PMS7003;55680;48.850;2.310;2022-09-27T07:24:01;0.00;0.00;0.00
68698;PMS7003;55680;48.850;2.310;2022-09-27T07:26:26;0.25;0.25;0.00
68698;PMS7003;55680;48.850;2.310;2022-09-27T07:28:51;0.25;0.00;0.00
68698;PMS7003;55680;48.850;2.310;2022-09-27T07:31:17;0.00;0.00;0.00
68698;PMS7003;55680;48.850;2.310;2022-09-27T07:33:43;2.00;0.00;0.00
68698;PMS7003;55680;48.850;2.310;2022-09-27T07:36:08;0.00;0.00;0.00
68698;PMS7003;55680;48.850;2.310;2022-09-27T07:38:34;3.00;0.00;0.00
68698;PMS7003;55680;48.850;2.310;2022-09-27T07:41:04;0.00;0.00;0.00
68698;PMS7003;55680;48.850;2.310;2022-09-27T07:43:29;1.00;1.00;0.00
68698;PMS7003;55680;48.850;2.310;2022-09-27T07:45:55;0.00;0.00;0.00
68698;PMS7003;55680;48.850;2.310;2022-09-27T07:48:20;0.00;0.00;0.00
68698;PMS7003;55680;48.850;2.310;2022-09-27T07:50:45;0.00;0.00;0.00
68698;PMS7003;55680;48.850;2.310;2022-09-27T07:53:11;0.00;0.00;0.00
68698;PMS7003;55680;48.850;2.310;2022-09-27T07:55:37;0.00;0.00;0.00
68698;PMS7003;55680;48.850;2.310;2022-09-27T07:58:03;0.00;0.00;0.00
68698;PMS7003;55680;48.850;2.310;2022-09-27T08:00:29;0.00;0.00;0.00
68698;PMS7003;55680;48.850;2.310;2022-09-27T08:02:54;1.00;0.00;0.00
68698;PMS7003;55680;48.850;2.310;2022-09-27T08:05:19;3.67;0.00;0.00
68698;PMS7003;55680;48.850;2.310;2022-09-27T08:07:45;0.75;0.00;0.00
68698;PMS7003;55680;48.850;2.310;2022-09-27T08:10:10;1.00;0.00;0.00
68698;PMS7003;55680;48.850;2.310;2022-09-27T08:12:35;1.00;0.00;0.00
68698;PMS7003;55680;48.850;2.310;2022-09-27T08:15:01;0.00;0.00;0.00
68698;PMS7003;55680;48.850;2.310;2022-09-27T08:17:30;1.25;1.00;1.00
68698;PMS7003;55680;48.850;2.310;2022-09-27T08:19:55;0.00;0.00;0.00
68698;PMS7003;55680;48.850;2.310;2022-09-27T08:22:21;1.75;1.00;0.00
68698;PMS7003;55680;48.850;2.310;2022-09-27T08:24:46;0.00;0.00;0.00
68698;PMS7003;55680;48.850;2.310;2022-09-27T08:27:12;0.00;0.00;0.00
68698;PMS7003;55680;48.850;2.310;2022-09-27T08:29:37;0.00;0.00;0.00
68698;PMS7003;55680;48.850;2.310;2022-09-27T08:32:05;0.25;0.25;0.00
68698;PMS7003;55680;48.850;2.310;2022-09-27T08:34:31;0.00;0.00;0.00
68698;PMS7003;55680;48.850;2.310;2022-09-27T08:36:56;0.00;0.00;0.00
68698;PMS7003;55680;48.850;2.310;2022-09-27T08:39:21;3.33;0.00;0.00
68698;PMS7003;55680;48.850;2.310;2022-09-27T08:42:09;0.00;0.00;0.00
68698;PMS7003;55680;48.850;2.310;2022-09-27T08:49:50;0.00;0.00;0.00
68698;PMS7003;55680;48.850;2.310;2022-09-27T08:52:19;2.75;1.00;0.00
68698;PMS7003;55680;48.850;2.310;2022-09-27T08:54:46;0.00;0.00;0.00
68698;PMS7003;55680;48.850;2.310;2022-09-27T08:57:12;0.25;0.25;0.25
68698;PMS7003;55680;48.850;2.310;2022-09-27T08:59:41;0.00;0.00;0.00
68698;PMS7003;55680;48.850;2.310;2022-09-27T09:02:17;1.25;0.50;0.00
68698;PMS7003;55680;48.850;2.310;2022-09-27T09:04:43;0.00;0.00;0.00
68698;PMS7003;55680;48.850;2.310;2022-09-27T09:07:22;0.00;0.00;0.00
68698;PMS7003;55680;48.850;2.310;2022-09-27T09:10:14;0.00;0.00;0.00
68698;PMS7003;55680;48.850;2.310;2022-09-27T09:13:06;0.00;0.00;0.00
68698;PMS7003;55680;48.850;2.310;2022-09-27T09:28:43;0.00;0.00;0.00
68698;PMS7003;55680;48.850;2.310;2022-09-27T09:33:44;2.75;0.00;0.00
68698;PMS7003;55680;48.850;2.310;2022-09-27T09:36:19;0.00;0.00;0.00
68698;PMS7003;55680;48.850;2.310;2022-09-27T09:38:57;1.00;1.00;0.00
68698;PMS7003;55680;48.850;2.310;2022-09-27T09:44:23;0.50;0.50;0.00
68698;PMS7003;55680;48.850;2.310;2022-09-27T09:46:52;5.75;1.75;1.00
68698;PMS7003;55680;48.850;2.310;2022-09-27T09:49:30;0.00;0.00;0.00
68698;PMS7003;55680;48.850;2.310;2022-09-27T09:52:01;1.00;1.00;0.25
68698;PMS7003;55680;48.850;2.310;2022-09-27T09:54:31;2.50;1.50;1.00
68698;PMS7003;55680;48.850;2.310;2022-09-27T09:59:40;1.00;1.00;0.00
68698;PMS7003;55680;48.850;2.310;2022-09-27T10:02:13;0.00;0.00;0.00
68698;PMS7003;55680;48.850;2.310;2022-09-27T10:04:41;2.00;0.00;0.00
68698;PMS7003;55680;48.850;2.310;2022-09-27T10:07:06;0.33;0.33;0.33
68698;PMS7003;55680;48.850;2.310;2022-09-27T10:09:32;2.00;0.75;0.00
68698;PMS7003;55680;48.850;2.310;2022-09-27T10:11:57;0.00;0.00;0.00
68698;PMS7003;55680;48.850;2.310;2022-09-27T10:14:24;1.00;1.00;1.00
68698;PMS7003;55680;48.850;2.310;2022-09-27T10:16:54;0.00;0.00;0.00
68698;PMS7003;55680;48.850;2.310;2022-09-27T10:19:30;2.00;1.00;1.00
68698;PMS7003;55680;48.850;2.310;2022-09-27T10:22:10;0.75;0.50;0.00
68698;PMS7003;55680;48.850;2.310;2022-09-27T10:24:55;0.00;0.00;0.00
68698;PMS7003;55680;48.850;2.310;2022-09-27T10:27:21;1.00;1.00;0.00
68698;PMS7003;55680;48.850;2.310;2022-09-27T10:29:47;0.00;0.00;0.00
68698;PMS7003;55680;48.850;2.310;2022-09-27T10:32:21;1.50;1.50;1.50
68698;PMS7003;55680;48.850;2.310;2022-09-27T10:34:48;1.50;1.50;1.00
68698;PMS7003;55680;48.850;2.310;2022-09-27T10:37:16;1.75;0.75;0.00
68698;PMS7003;55680;48.850;2.310;2022-09-27T10:39:45;0.00;0.00;0.00
68698;PMS7003;55680;48.850;2.310;2022-09-27T10:44:56;1.25;1.25;0.50
68698;PMS7003;55680;48.850;2.310;2022-09-27T10:47:22;3.67;3.00;2.00
68698;PMS7003;55680;48.850;2.310;2022-09-27T10:49:49;1.00;1.00;1.00
68698;PMS7003;55680;48.850;2.310;2022-09-27T10:52:19;1.00;1.00;1.00
68698;PMS7003;55680;48.850;2.310;2022-09-27T10:54:58;1.75;0.00;0.00
68698;PMS7003;55680;48.850;2.310;2022-09-27T10:57:25;2.25;1.50;1.00
68698;PMS7003;55680;48.850;2.310;2022-09-27T10:59:53;1.00;1.00;0.75
68698;PMS7003;55680;48.850;2.310;2022-09-27T11:02:20;2.25;1.00;0.75
68698;PMS7003;55680;48.850;2.310;2022-09-27T11:07:30;1.50;1.50;0.25
68698;PMS7003;55680;48.850;2.310;2022-09-27T11:09:56;0.50;0.50;0.50
68698;PMS7003;55680;48.850;2.310;2022-09-27T11:12:27;6.00;2.25;1.00
68698;PMS7003;55680;48.850;2.310;2022-09-27T11:14:56;1.00;1.00;1.00
68698;PMS7003;55680;48.850;2.310;2022-09-27T11:20:24;0.00;0.00;0.00
68698;PMS7003;55680;48.850;2.310;2022-09-27T11:30:15;1.00;0.00;0.00
68698;PMS7003;55680;48.850;2.310;2022-09-27T11:45:46;0.00;0.00;0.00
68698;PMS7003;55680;48.850;2.310;2022-09-27T11:48:26;0.00;0.00;0.00
68698;PMS7003;55680;48.850;2.310;2022-09-27T11:50:59;0.50;0.50;0.00
68698;PMS7003;55680;48.850;2.310;2022-09-27T11:56:02;0.67;0.67;0.00
68698;PMS7003;55680;48.850;2.310;2022-09-27T11:58:55;0.00;0.00;0.00
68698;PMS7003;55680;48.850;2.310;2022-09-27T12:11:36;0.00;0.00;0.00
68698;PMS7003;55680;48.850;2.310;2022-09-27T12:16:29;0.67;0.67;0.00
68698;PMS7003;55680;48.850;2.310;2022-09-27T12:18:55;0.75;0.75;0.00
68698;PMS7003;55680;48.850;2.310;2022-09-27T12:21:21;3.75;1.00;1.00
68698;PMS7003;55680;48.850;2.310;2022-09-27T12:23:53;1.25;1.00;0.00
68698;PMS7003;55680;48.850;2.310;2022-09-27T12:26:24;0.00;0.00;0.00
68698;PMS7003;55680;48.850;2.310;2022-09-27T12:28:55;3.00;0.00;0.00
68698;PMS7003;55680;48.850;2.310;2022-09-27T12:31:22;0.00;0.00;0.00
68698;PMS7003;55680;48.850;2.310;2022-09-27T12:34:14;1.00;0.25;0.00
68698;PMS7003;55680;48.850;2.310;2022-09-27T12:36:37;1.25;1.25;1.00
68698;PMS7003;55680;48.850;2.310;2022-09-27T12:41:53;4.50;2.00;1.00
68698;PMS7003;55680;48.850;2.310;2022-09-27T12:44:26;3.50;1.00;0.00
68698;PMS7003;55680;48.850;2.310;2022-09-27T12:49:23;2.67;2.00;1.00
68698;PMS7003;55680;48.850;2.310;2022-09-27T12:51:55;2.00;2.00;1.00
68698;PMS7003;55680;48.850;2.310;2022-09-27T12:54:37;1.75;1.00;0.00
68698;PMS7003;55680;48.850;2.310;2022-09-27T12:57:22;0.00;0.00;0.00
68698;PMS7003;55680;48.850;2.310;2022-09-27T12:59:57;0.00;0.00;0.00
68698;PMS7003;55680;48.850;2.310;2022-09-27T13:12:54;5.50;1.00;0.00
68698;PMS7003;55680;48.850;2.310;2022-09-27T13:17:49;2.00;1.75;1.00
68698;PMS7003;55680;48.850;2.310;2022-09-27T13:22:55;2.25;2.00;1.00
68698;PMS7003;55680;48.850;2.310;2022-09-27T13:30:52;4.25;2.50;1.00
68698;PMS7003;55680;48.850;2.310;2022-09-27T13:33:21;6.00;2.25;1.00
68698;PMS7003;55680;48.850;2.310;2022-09-27T13:36:15;1.75;1.75;0.50
68698;PMS7003;55680;48.850;2.310;2022-09-27T13:41:25;3.25;1.00;1.00
68698;PMS7003;55680;48.850;2.310;2022-09-27T13:46:18;1.00;0.00;0.00
68698;PMS7003;55680;48.850;2.310;2022-09-27T13:53:41;4.67;2.00;1.00
68698;PMS7003;55680;48.850;2.310;2022-09-27T13:58:58;1.25;1.25;1.00
68698;PMS7003;55680;48.850;2.310;2022-09-27T14:01:27;2.00;1.00;0.00
68698;PMS7003;55680;48.850;2.310;2022-09-27T14:03:55;1.00;1.00;0.00
68698;PMS7003;55680;48.850;2.310;2022-09-27T14:06:31;1.00;1.00;0.00
68698;PMS7003;55680;48.850;2.310;2022-09-27T14:09:01;2.25;1.75;0.00
68698;PMS7003;55680;48.850;2.310;2022-09-27T14:11:36;2.50;0.75;0.00
68698;PMS7003;55680;48.850;2.310;2022-09-27T14:14:03;2.00;1.00;0.00
68698;PMS7003;55680;48.850;2.310;2022-09-27T14:16:30;1.00;0.00;0.00
68698;PMS7003;55680;48.850;2.310;2022-09-27T14:18:56;4.50;1.25;1.00
68698;PMS7003;55680;48.850;2.310;2022-09-27T14:23:52;6.00;3.00;1.00
68698;PMS7003;55680;48.850;2.310;2022-09-27T14:26:24;2.25;1.00;1.00
68698;PMS7003;55680;48.850;2.310;2022-09-27T14:28:50;0.00;0.00;0.00
68698;PMS7003;55680;48.850;2.310;2022-09-27T14:31:22;2.25;1.75;1.00
68698;PMS7003;55680;48.850;2.310;2022-09-27T14:33:48;3.00;1.50;1.00
68698;PMS7003;55680;48.850;2.310;2022-09-27T14:39:00;3.50;1.00;0.00
68698;PMS7003;55680;48.850;2.310;2022-09-27T14:41:25;2.67;1.00;0.00
68698;PMS7003;55680;48.850;2.310;2022-09-27T14:43:51;3.75;3.00;1.00
68698;PMS7003;55680;48.850;2.310;2022-09-27T14:46:24;2.00;1.00;0.00
68698;PMS7003;55680;48.850;2.310;2022-09-27T14:48:50;2.00;1.00;1.00
68698;PMS7003;55680;48.850;2.310;2022-09-27T14:51:20;0.33;0.33;0.00
68698;PMS7003;55680;48.850;2.310;2022-09-27T14:53:53;1.00;0.00;0.00
68698;PMS7003;55680;48.850;2.310;2022-09-27T14:56:28;5.00;2.00;0.25
68698;PMS7003;55680;48.850;2.310;2022-09-27T14:59:18;0.00;0.00;0.00
68698;PMS7003;55680;48.850;2.310;2022-09-27T15:01:51;3.00;0.00;0.00
68698;PMS7003;55680;48.850;2.310;2022-09-27T15:04:17;1.00;0.00;0.00
68698;PMS7003;55680;48.850;2.310;2022-09-27T15:06:43;1.75;1.00;0.00
68698;PMS7003;55680;48.850;2.310;2022-09-27T15:09:09;3.00;1.00;0.00
68698;PMS7003;55680;48.850;2.310;2022-09-27T15:11:38;0.75;0.75;0.00
68698;PMS7003;55680;48.850;2.310;2022-09-27T15:14:04;1.00;1.00;1.00
68698;PMS7003;55680;48.850;2.310;2022-09-27T15:16:29;0.00;0.00;0.00
68698;PMS7003;55680;48.850;2.310;2022-09-27T15:21:34;0.75;0.75;0.00
68698;PMS7003;55680;48.850;2.310;2022-09-27T15:24:00;2.00;2.00;1.00
68698;PMS7003;55680;48.850;2.310;2022-09-27T15:26:34;2.00;0.00;0.00
68698;PMS7003;55680;48.850;2.310;2022-09-27T15:29:00;2.00;1.00;0.50
68698;PMS7003;55680;48.850;2.310;2022-09-27T15:31:29;0.00;0.00;0.00
68698;PMS7003;55680;48.850;2.310;2022-09-27T15:33:55;1.50;0.00;0.00
68698;PMS7003;55680;48.850;2.310;2022-09-27T15:39:06;4.25;3.00;1.00
68698;PMS7003;55680;48.850;2.310;2022-09-27T15:41:57;6.50;2.50;1.00
68698;PMS7003;55680;48.850;2.310;2022-09-27T15:44:37;4.75;2.75;1.00
68698;PMS7003;55680;48.850;2.310;2022-09-27T15:47:03;4.00;3.00;2.00
68698;PMS7003;55680;48.850;2.310;2022-09-27T15:49:29;5.25;2.00;1.75
68698;PMS7003;55680;48.850;2.310;2022-09-27T15:51:56;3.25;1.00;1.00
68698;PMS7003;55680;48.850;2.310;2022-09-27T15:54:23;5.25;3.00;2.00
68698;PMS7003;55680;48.850;2.310;2022-09-27T15:56:49;7.75;3.50;1.75
68698;PMS7003;55680;48.850;2.310;2022-09-27T15:59:21;1.00;1.00;1.00
68698;PMS7003;55680;48.850;2.310;2022-09-27T16:01:48;1.50;1.50;0.75
68698;PMS7003;55680;48.850;2.310;2022-09-27T16:04:13;2.75;2.00;1.00
68698;PMS7003;55680;48.850;2.310;2022-09-27T16:06:38;2.25;2.25;1.00
68698;PMS7003;55680;48.850;2.310;2022-09-27T16:09:08;3.00;1.25;1.00
68698;PMS7003;55680;48.850;2.310;2022-09-27T16:11:33;3.75;1.00;1.00
68698;PMS7003;55680;48.850;2.310;2022-09-27T16:13:59;4.00;1.67;1.00
68698;PMS7003;55680;48.850;2.310;2022-09-27T16:16:24;8.50;4.00;2.00
68698;PMS7003;55680;48.850;2.310;2022-09-27T16:18:49;2.50;2.50;2.00
68698;PMS7003;55680;48.850;2.310;2022-09-27T16:21:15;3.50;2.50;2.00
68698;PMS7003;55680;48.850;2.310;2022-09-27T16:23:40;4.25;3.00;2.00
68698;PMS7003;55680;48.850;2.310;2022-09-27T16:26:05;5.33;2.00;1.33
68698;PMS7003;55680;48.850;2.310;2022-09-27T16:28:31;2.00;2.00;1.00
68698;PMS7003;55680;48.850;2.310;2022-09-27T16:31:04;1.00;1.00;0.00
68698;PMS7003;55680;48.850;2.310;2022-09-27T16:33:30;3.50;1.00;1.00
68698;PMS7003;55680;48.850;2.310;2022-09-27T16:35:56;3.25;2.50;2.00
68698;PMS7003;55680;48.850;2.310;2022-09-27T16:38:21;3.75;2.75;0.00
68698;PMS7003;55680;48.850;2.310;2022-09-27T16:40:50;6.25;3.50;2.00
68698;PMS7003;55680;48.850;2.310;2022-09-27T16:43:15;3.33;3.33;1.00
68698;PMS7003;55680;48.850;2.310;2022-09-27T16:45:40;2.00;0.75;0.00
68698;PMS7003;55680;48.850;2.310;2022-09-27T16:48:05;5.00;1.00;1.00
68698;PMS7003;55680;48.850;2.310;2022-09-27T16:50:30;6.33;4.33;2.33
68698;PMS7003;55680;48.850;2.310;2022-09-27T16:53:14;7.75;6.50;4.00
68698;PMS7003;55680;48.850;2.310;2022-09-27T16:55:39;6.75;5.00;3.50
68698;PMS7003;55680;48.850;2.310;2022-09-27T16:58:05;15.00;7.33;3.33
68698;PMS7003;55680;48.850;2.310;2022-09-27T17:00:32;3.25;3.25;1.25